Time;durP1;ratioP1;P1;durP2;ratioP2;P2;SDS_P1;SDS_P2;PMS_P1;PMS_P2;Temp;Humidity;BMP_temperature;BMP_pressure;BME280_temperature;BME280_humidity;BME280_pressure;Samples;Min_cycle;Max_cycle;Signal;HPM_P1;HPM_P2
2022/11/29 00:00:22;;;;;;;53.90;33.28;;;5.50;99.90;;;;;;2062336;28;20114;-68
2022/11/29 00:01:25;;;;;;;54.75;32.80;;;5.50;99.90;;;;;;2062175;28;20420;-68
2022/11/29 00:02:26;;;;;;;52.65;32.00;;;5.50;99.90;;;;;;2054982;28;20022;-69
2022/11/29 00:03:27;;;;;;;51.05;30.35;;;5.50;99.90;;;;;;2054783;28;20027;-68
2022/11/29 00:04:28;;;;;;;50.55;30.75;;;5.50;99.90;;;;;;2054871;28;20031;-69
2022/11/29 00:05:28;;;;;;;51.50;31.35;;;5.50;99.90;;;;;;2054235;28;20077;-68
2022/11/29 00:06:32;;;;;;;54.42;32.38;;;5.50;99.90;;;;;;2054259;28;20031;-69
2022/11/29 00:07:33;;;;;;;54.08;33.15;;;5.50;99.90;;;;;;2055116;28;20572;-68
2022/11/29 00:08:35;;;;;;;54.75;32.67;;;5.50;99.90;;;;;;2054358;28;20038;-69
2022/11/29 00:09:35;;;;;;;52.05;32.28;;;5.50;99.90;;;;;;2055218;28;20037;-68
2022/11/29 00:10:36;;;;;;;53.83;32.72;;;5.50;99.90;;;;;;2056465;28;20057;-67
2022/11/29 00:13:00;;;;;;;53.00;31.17;;;5.50;99.90;;;;;;2054994;28;20038;-67
2022/11/29 00:14:01;;;;;;;53.45;32.38;;;5.50;99.90;;;;;;2054768;28;20034;-67
2022/11/29 00:15:01;;;;;;;55.38;33.50;;;5.50;99.90;;;;;;2055012;28;20041;-67
2022/11/29 00:16:07;;;;;;;55.97;33.97;;;5.50;99.90;;;;;;2054381;28;20027;-67
2022/11/29 00:17:08;;;;;;;53.33;32.58;;;5.50;99.90;;;;;;2054341;28;20027;-67
2022/11/29 00:18:09;;;;;;;52.78;32.95;;;5.40;99.90;;;;;;2055057;28;20110;-67
2022/11/29 00:19:11;;;;;;;55.50;33.65;;;5.50;99.90;;;;;;2054992;28;20035;-67
2022/11/29 00:20:12;;;;;;;52.97;31.70;;;5.50;99.90;;;;;;2054950;28;20027;-67
2022/11/29 00:21:13;;;;;;;52.67;32.60;;;5.50;99.90;;;;;;2054930;28;20497;-67
2022/11/29 00:22:13;;;;;;;56.55;33.88;;;5.50;99.90;;;;;;2055872;28;20031;-67
2022/11/29 00:23:14;;;;;;;53.90;32.25;;;5.50;99.90;;;;;;2056699;28;20030;-68
2022/11/29 00:24:15;;;;;;;52.03;31.40;;;5.50;99.90;;;;;;2056398;28;20035;-67
2022/11/29 00:25:19;;;;;;;53.42;32.15;;;5.50;99.90;;;;;;2056659;28;20042;-68
2022/11/29 00:26:20;;;;;;;55.17;33.63;;;5.50;99.90;;;;;;2055780;28;20113;-67
2022/11/29 00:27:20;;;;;;;51.67;31.35;;;5.50;99.90;;;;;;2055934;28;20679;-68
2022/11/29 00:28:21;;;;;;;55.38;34.35;;;5.50;99.90;;;;;;2055707;28;20030;-68
2022/11/29 00:29:22;;;;;;;54.80;33.15;;;5.50;99.90;;;;;;2055902;28;20030;-67
2022/11/29 00:30:23;;;;;;;56.17;34.13;;;5.50;99.90;;;;;;2048042;28;20385;-67
2022/11/29 00:31:26;;;;;;;60.45;35.33;;;5.50;99.90;;;;;;2047553;29;20082;-70
2022/11/29 00:32:27;;;;;;;52.92;33.53;;;5.50;99.90;;;;;;2056428;28;20178;-68
2022/11/29 00:33:27;;;;;;;49.10;31.17;;;5.50;99.90;;;;;;2055795;28;20035;-68
2022/11/29 00:34:28;;;;;;;47.47;30.63;;;5.50;99.90;;;;;;2055835;28;20027;-67
2022/11/29 00:35:29;;;;;;;48.35;29.88;;;5.50;99.90;;;;;;2056844;28;20046;-67
2022/11/29 00:36:30;;;;;;;50.42;31.67;;;5.50;99.90;;;;;;2056492;28;20031;-68
2022/11/29 00:37:30;;;;;;;55.72;32.00;;;5.50;99.90;;;;;;2056023;28;20407;-67
2022/11/29 00:38:31;;;;;;;54.70;33.17;;;5.50;99.90;;;;;;2056327;28;20050;-67
2022/11/29 00:39:32;;;;;;;52.42;32.92;;;5.50;99.90;;;;;;2056139;28;20053;-68
2022/11/29 00:40:32;;;;;;;49.90;31.17;;;5.50;99.90;;;;;;2056078;28;20027;-67
2022/11/29 00:41:33;;;;;;;47.78;30.55;;;5.60;99.90;;;;;;2056642;28;20034;-67
2022/11/29 00:42:34;;;;;;;50.17;31.33;;;5.60;99.90;;;;;;2055888;28;20019;-67
2022/11/29 00:43:35;;;;;;;51.72;31.80;;;5.60;99.90;;;;;;2055657;28;20054;-67
2022/11/29 00:44:36;;;;;;;50.40;31.42;;;5.60;99.90;;;;;;2063752;28;20057;-67
2022/11/29 00:45:36;;;;;;;48.67;31.30;;;5.60;99.90;;;;;;2056635;28;20118;-67
2022/11/29 00:46:37;;;;;;;48.38;30.77;;;5.60;99.90;;;;;;2056641;28;20026;-66
2022/11/29 00:47:38;;;;;;;49.15;31.08;;;5.60;99.90;;;;;;2056405;28;20034;-66
2022/11/29 00:48:38;;;;;;;54.60;32.88;;;5.60;99.90;;;;;;2055746;28;20030;-66
2022/11/29 00:49:39;;;;;;;52.65;32.53;;;5.70;99.90;;;;;;2047683;28;20039;-66
2022/11/29 00:50:40;;;;;;;51.63;32.20;;;5.70;99.90;;;;;;2055621;28;20043;-66
2022/11/29 00:51:40;;;;;;;51.42;32.28;;;5.70;99.90;;;;;;2055948;28;20031;-66
2022/11/29 00:52:41;;;;;;;56.38;34.58;;;5.70;99.90;;;;;;2056447;28;20523;-67
2022/11/29 00:53:42;;;;;;;54.20;32.67;;;5.70;99.90;;;;;;2070970;28;20760;-67
2022/11/29 00:54:42;;;;;;;53.67;32.97;;;5.70;99.90;;;;;;2064233;28;20033;-66
2022/11/29 00:55:46;;;;;;;55.47;34.20;;;5.70;99.90;;;;;;2056474;28;20026;-67
2022/11/29 00:56:46;;;;;;;52.33;32.55;;;5.70;99.90;;;;;;2056335;28;20101;-68
2022/11/29 00:57:47;;;;;;;55.63;34.60;;;5.70;99.90;;;;;;2056290;28;20033;-67
2022/11/29 00:58:48;;;;;;;54.47;33.25;;;5.70;99.90;;;;;;2056289;28;20076;-67
2022/11/29 00:59:48;;;;;;;49.72;31.27;;;5.70;99.90;;;;;;2071187;28;20053;-67
2022/11/29 01:00:51;;;;;;;52.95;32.50;;;5.70;99.90;;;;;;2072526;28;20168;-66
2022/11/29 01:01:51;;;;;;;53.38;34.13;;;5.70;99.90;;;;;;2065463;28;20066;-67
2022/11/29 01:02:52;;;;;;;58.47;34.45;;;5.70;99.90;;;;;;2065279;28;20039;-67
2022/11/29 01:03:53;;;;;;;52.28;32.60;;;5.70;99.90;;;;;;2065697;28;20034;-66
2022/11/29 01:04:54;;;;;;;56.17;35.15;;;5.70;99.90;;;;;;2065252;28;20054;-67
2022/11/29 01:06:07;;;;;;;52.35;32.42;;;5.70;99.90;;;;;;2063215;28;20038;-67
2022/11/29 01:07:07;;;;;;;56.53;35.28;;;5.70;99.90;;;;;;2056257;28;20039;-67
2022/11/29 01:08:09;;;;;;;57.03;34.63;;;5.70;99.90;;;;;;2056366;28;20027;-67
2022/11/29 01:09:10;;;;;;;54.15;33.42;;;5.70;99.90;;;;;;2056274;28;20524;-67
2022/11/29 01:10:10;;;;;;;51.95;32.53;;;5.70;99.90;;;;;;2056271;28;20033;-67
2022/11/29 01:11:17;;;;;;;56.15;33.60;;;5.70;99.90;;;;;;2055550;28;20477;-67
2022/11/29 01:12:18;;;;;;;54.33;33.00;;;5.80;99.90;;;;;;2055394;28;20496;-67
2022/11/29 01:13:19;;;;;;;58.03;34.97;;;5.80;99.90;;;;;;2055376;28;20121;-67
2022/11/29 01:14:19;;;;;;;56.55;34.58;;;5.70;99.90;;;;;;2055511;28;20035;-67
2022/11/29 01:15:20;;;;;;;56.75;35.05;;;5.80;99.90;;;;;;2056268;28;20163;-67
2022/11/29 01:16:21;;;;;;;59.72;35.78;;;5.80;99.90;;;;;;2047514;28;20027;-67
2022/11/29 01:17:22;;;;;;;54.50;33.63;;;5.70;99.90;;;;;;2039527;29;20035;-67
2022/11/29 01:18:23;;;;;;;57.28;35.35;;;5.80;99.90;;;;;;2047604;28;20027;-67
2022/11/29 01:19:23;;;;;;;56.80;34.58;;;5.70;99.90;;;;;;2047675;28;20608;-66
2022/11/29 01:20:24;;;;;;;52.63;33.03;;;5.80;99.90;;;;;;2055590;28;20028;-67
2022/11/29 01:21:25;;;;;;;57.60;33.60;;;5.80;99.90;;;;;;2055266;28;20105;-67
2022/11/29 01:22:26;;;;;;;52.58;33.17;;;5.80;99.90;;;;;;2056083;28;20034;-67
2022/11/29 01:23:27;;;;;;;58.70;35.35;;;5.80;99.90;;;;;;2056176;28;20058;-68
2022/11/29 01:24:29;;;;;;;52.38;32.70;;;5.80;99.90;;;;;;2056088;28;20088;-67
2022/11/29 01:25:30;;;;;;;51.13;32.05;;;5.80;99.90;;;;;;2056113;28;20023;-67
2022/11/29 01:26:32;;;;;;;52.22;32.70;;;5.80;99.90;;;;;;2056232;28;20063;-67
2022/11/29 01:27:33;;;;;;;51.03;32.05;;;5.80;99.90;;;;;;2056295;28;20018;-67
2022/11/29 01:28:34;;;;;;;55.40;34.08;;;5.80;99.90;;;;;;2056333;28;20037;-69
2022/11/29 01:29:35;;;;;;;52.97;33.28;;;5.80;99.90;;;;;;2056143;28;20031;-67
2022/11/29 01:30:36;;;;;;;56.33;34.13;;;5.80;99.90;;;;;;2056336;28;20038;-67
2022/11/29 01:31:37;;;;;;;56.80;35.33;;;5.80;99.90;;;;;;2055934;28;20061;-67
2022/11/29 01:32:38;;;;;;;57.85;35.05;;;5.80;99.90;;;;;;2056222;28;20027;-67
2022/11/29 01:33:39;;;;;;;55.70;34.53;;;5.80;99.90;;;;;;2054475;28;20084;-67
2022/11/29 01:34:40;;;;;;;51.65;32.58;;;5.80;99.90;;;;;;2055470;28;20536;-67
2022/11/29 01:35:47;;;;;;;52.28;32.90;;;5.80;99.90;;;;;;2055940;28;20023;-67
2022/11/29 01:36:47;;;;;;;51.47;32.45;;;5.80;99.90;;;;;;2055147;28;20018;-67
2022/11/29 01:37:48;;;;;;;50.30;31.77;;;5.80;99.90;;;;;;2055520;28;20504;-66
2022/11/29 01:38:49;;;;;;;57.35;35.33;;;5.80;99.90;;;;;;2056119;28;20046;-67
2022/11/29 01:39:50;;;;;;;53.50;33.55;;;5.80;99.90;;;;;;2056209;28;20030;-66
2022/11/29 01:41:04;;;;;;;57.13;34.40;;;5.80;99.90;;;;;;2056152;28;20035;-66
2022/11/29 01:42:05;;;;;;;56.97;33.78;;;5.80;99.90;;;;;;2063042;28;20030;-66
2022/11/29 01:43:16;;;;;;;56.15;34.38;;;5.80;99.90;;;;;;2063512;28;20030;-66
2022/11/29 01:44:17;;;;;;;56.88;34.45;;;5.80;99.90;;;;;;2051282;28;20066;-66
2022/11/29 01:45:25;;;;;;;53.92;33.45;;;5.80;99.90;;;;;;2047306;28;20046;-66
2022/11/29 01:46:28;;;;;;;55.03;34.13;;;5.80;99.90;;;;;;2054501;28;20041;-66
2022/11/29 01:47:29;;;;;;;53.00;33.78;;;5.80;99.90;;;;;;2047314;28;20049;-66
2022/11/29 01:48:32;;;;;;;57.65;35.85;;;5.80;99.90;;;;;;2053179;28;20055;-66
2022/11/29 01:49:36;;;;;;;53.25;33.20;;;5.80;99.90;;;;;;2055788;28;20060;-66
2022/11/29 01:50:39;;;;;;;53.60;33.58;;;5.80;99.90;;;;;;2055986;28;20481;-66
2022/11/29 01:51:44;;;;;;;57.40;35.70;;;5.80;99.90;;;;;;2063032;28;20022;-67
2022/11/29 01:52:46;;;;;;;54.20;34.42;;;5.80;99.90;;;;;;2055188;28;20023;-68
2022/11/29 01:53:47;;;;;;;56.03;34.22;;;5.80;99.90;;;;;;2055400;28;20539;-68
2022/11/29 01:54:50;;;;;;;50.03;32.33;;;5.80;99.90;;;;;;2056000;28;20034;-68
2022/11/29 01:55:54;;;;;;;55.20;34.83;;;5.80;99.90;;;;;;2055985;28;20066;-68
2022/11/29 01:56:57;;;;;;;55.85;34.72;;;5.80;99.90;;;;;;2054914;28;20599;-68
2022/11/29 01:57:59;;;;;;;53.20;33.10;;;5.90;99.90;;;;;;2055278;28;20084;-67
2022/11/29 01:59:09;;;;;;;53.35;33.45;;;5.90;99.90;;;;;;2055707;28;20047;-67
2022/11/29 02:00:14;;;;;;;54.03;34.15;;;5.80;99.90;;;;;;2055216;28;20037;-67
2022/11/29 02:01:15;;;;;;;60.15;35.90;;;5.90;99.90;;;;;;2055374;28;20042;-66
2022/11/29 02:02:27;;;;;;;56.58;35.75;;;5.80;99.90;;;;;;2055486;28;20042;-68
2022/11/29 02:03:31;;;;;;;55.90;33.78;;;5.80;99.90;;;;;;2055824;28;20122;-67
2022/11/29 02:04:33;;;;;;;54.28;34.38;;;5.80;99.90;;;;;;2055791;28;20046;-67
2022/11/29 02:05:35;;;;;;;51.17;31.90;;;5.80;99.90;;;;;;2055738;28;20516;-68
2022/11/29 02:06:36;;;;;;;58.28;36.38;;;5.80;99.90;;;;;;2055141;28;20030;-68
2022/11/29 02:07:37;;;;;;;51.75;32.80;;;5.80;99.90;;;;;;2055277;28;20371;-67
2022/11/29 02:08:40;;;;;;;55.30;33.58;;;5.80;99.90;;;;;;2055417;28;20034;-68
2022/11/29 02:09:41;;;;;;;53.92;33.60;;;5.80;99.90;;;;;;2055220;28;20038;-67
2022/11/29 02:11:00;;;;;;;52.50;33.15;;;5.80;99.90;;;;;;2055887;28;20023;-68
2022/11/29 02:12:19;;;;;;;53.80;33.83;;;5.80;99.90;;;;;;2055776;28;20038;-67
2022/11/29 02:13:35;;;;;;;58.28;34.83;;;5.80;99.90;;;;;;2052038;28;20609;-67
2022/11/29 02:15:13;;;;;;;60.95;36.95;;;5.80;99.90;;;;;;2055810;28;20786;-67
2022/11/29 02:16:35;;;;;;;59.03;35.83;;;5.70;99.90;;;;;;2055202;28;20030;-67
2022/11/29 02:18:04;;;;;;;61.08;36.83;;;5.70;99.90;;;;;;2055389;28;20366;-67
2022/11/29 02:19:45;;;;;;;56.83;34.15;;;5.70;99.90;;;;;;2055813;28;20069;-68
2022/11/29 02:21:14;;;;;;;;;;;5.70;99.90;;;;;;2055714;28;20110;-67
2022/11/29 02:22:34;;;;;;;58.33;33.72;;;5.70;99.90;;;;;;2049977;28;19914;-68
2022/11/29 02:23:52;;;;;;;57.25;34.08;;;5.70;99.90;;;;;;2055070;28;20130;-68
2022/11/29 02:25:26;;;;;;;55.05;33.35;;;5.70;99.90;;;;;;2063124;28;20104;-67
2022/11/29 02:26:57;;;;;;;58.85;34.60;;;5.70;99.90;;;;;;2059169;28;20646;-67
2022/11/29 02:28:04;;;;;;;60.90;36.13;;;5.60;99.90;;;;;;2055035;28;20031;-68
2022/11/29 02:29:30;;;;;;;58.13;34.78;;;5.60;99.90;;;;;;2054635;28;20030;-67
2022/11/29 02:31:04;;;;;;;61.05;36.13;;;5.60;99.90;;;;;;2055043;28;20039;-67
2022/11/29 02:32:32;;;;;;;64.20;37.17;;;5.60;99.90;;;;;;2054769;28;20034;-67
2022/11/29 02:33:50;;;;;;;64.38;36.90;;;5.60;99.90;;;;;;2055309;28;20054;-67
2022/11/29 03:12:57;;;;;;;67.72;37.30;;;5.40;99.90;;;;;;2055242;28;20027;-67
2022/11/29 03:14:42;;;;;;;72.20;39.92;;;5.30;99.90;;;;;;2055353;28;20577;-67
2022/11/29 03:15:56;;;;;;;68.90;38.90;;;5.30;99.90;;;;;;2046688;28;20035;-68
2022/11/29 03:17:35;;;;;;;66.03;38.00;;;5.30;99.90;;;;;;2055197;28;20030;-70
2022/11/29 03:19:11;;;;;;;65.43;36.88;;;5.30;99.90;;;;;;2052821;28;20037;-68
2022/11/29 03:20:20;;;;;;;66.70;38.28;;;5.30;99.90;;;;;;2054491;28;20031;-69
2022/11/29 03:21:59;;;;;;;61.97;37.30;;;5.30;99.90;;;;;;2054780;28;20159;-69
2022/11/29 03:23:20;;;;;;;64.38;37.05;;;5.30;99.90;;;;;;2061746;28;20145;-68
2022/11/29 03:24:32;;;;;;;66.30;38.45;;;5.30;99.90;;;;;;2054499;28;20433;-68
2022/11/29 03:26:01;;;;;;;66.07;38.55;;;5.30;99.90;;;;;;2054674;28;20019;-69
2022/11/29 03:27:08;;;;;;;65.55;38.38;;;5.20;99.90;;;;;;2049063;28;20492;-69
2022/11/29 03:28:43;;;;;;;69.00;39.20;;;5.30;99.90;;;;;;2055027;28;20066;-69
2022/11/29 03:29:51;;;;;;;67.80;38.58;;;5.30;99.90;;;;;;2055183;28;20198;-69
2022/11/29 03:31:09;;;;;;;65.45;38.20;;;5.20;99.90;;;;;;2047848;28;20067;-69
2022/11/29 03:32:58;;;;;;;66.63;39.08;;;5.20;99.90;;;;;;2054960;28;20343;-69
2022/11/29 03:34:22;;;;;;;63.60;36.45;;;5.30;99.90;;;;;;2049793;28;20062;-69
2022/11/29 03:35:34;;;;;;;68.20;38.00;;;5.30;99.90;;;;;;2055076;28;20031;-68
2022/11/29 03:37:22;;;;;;;64.38;37.25;;;5.30;99.90;;;;;;2054699;28;20027;-68
2022/11/29 03:38:41;;;;;;;72.15;39.90;;;5.30;99.90;;;;;;2051613;28;20053;-68
2022/11/29 03:39:55;;;;;;;68.10;38.17;;;5.30;99.90;;;;;;2055164;28;20058;-68
2022/11/29 03:41:29;;;;;;;65.25;37.80;;;5.30;99.90;;;;;;2055310;28;20042;-69
2022/11/29 03:42:50;;;;;;;70.70;39.25;;;5.30;99.90;;;;;;2055475;28;20611;-69
2022/11/29 03:44:10;;;;;;;65.75;38.00;;;5.30;99.90;;;;;;2046394;29;20098;-69
2022/11/29 03:45:23;;;;;;;62.45;36.10;;;5.20;99.90;;;;;;2041331;29;20471;-69
2022/11/29 03:46:47;;;;;;;61.15;35.75;;;5.20;99.90;;;;;;2046637;29;20093;-68
2022/11/29 03:48:01;;;;;;;68.45;37.90;;;5.20;99.90;;;;;;2047058;28;20030;-68
2022/11/29 03:49:08;;;;;;;68.78;37.72;;;5.30;99.90;;;;;;2047186;28;20022;-68
2022/11/29 03:50:19;;;;;;;66.53;37.10;;;5.20;99.90;;;;;;2046381;28;20379;-68
2022/11/29 03:51:38;;;;;;;;;;;5.20;99.90;;;;;;2047197;29;20110;-69
2022/11/29 03:53:01;;;;;;;67.55;38.10;;;5.20;99.90;;;;;;2046541;29;20018;-69
2022/11/29 03:54:09;;;;;;;70.35;40.17;;;5.30;99.90;;;;;;2046762;29;20453;-68
2022/11/29 03:55:47;;;;;;;66.50;38.42;;;5.20;99.90;;;;;;2052219;28;20029;-69
2022/11/29 03:56:48;;;;;;;64.95;36.55;;;5.20;99.90;;;;;;2056405;28;20023;-69
2022/11/29 03:57:55;;;;;;;63.03;36.60;;;5.20;99.90;;;;;;2057960;28;20034;-69
2022/11/29 03:59:19;;;;;;;60.97;36.47;;;5.20;99.90;;;;;;2057968;28;20035;-69
2022/11/29 04:00:21;;;;;;;63.72;36.85;;;5.30;99.90;;;;;;2057815;28;20046;-68
2022/11/29 04:01:39;;;;;;;69.38;38.78;;;5.30;99.90;;;;;;2057625;28;20059;-67
2022/11/29 04:03:16;;;;;;;65.88;37.13;;;5.30;99.90;;;;;;2057773;28;20093;-67
2022/11/29 04:04:23;;;;;;;69.32;39.47;;;5.30;99.90;;;;;;2056986;28;20040;-68
2022/11/29 04:06:05;;;;;;;68.30;38.10;;;5.30;99.90;;;;;;2057247;28;20046;-67
2022/11/29 04:07:50;;;;;;;64.93;36.42;;;5.30;99.90;;;;;;2048602;29;20069;-66
2022/11/29 04:09:17;;;;;;;65.35;35.47;;;5.30;99.90;;;;;;2049125;28;20032;-67
2022/11/29 04:11:02;;;;;;;62.33;35.78;;;5.20;99.90;;;;;;2063052;28;20493;-69
2022/11/29 04:12:02;;;;;;;62.75;35.15;;;5.20;99.90;;;;;;2058425;28;20035;-68
2022/11/29 04:13:34;;;;;;;65.65;37.53;;;5.20;99.90;;;;;;2058649;28;20425;-68
2022/11/29 04:15:00;;;;;;;63.15;36.17;;;5.20;99.90;;;;;;2058769;28;20074;-69
2022/11/29 04:16:25;;;;;;;68.65;37.70;;;5.20;99.90;;;;;;2058532;28;20043;-70
2022/11/29 04:17:53;;;;;;;69.35;38.22;;;5.20;99.90;;;;;;2058942;28;20030;-69
2022/11/29 04:19:18;;;;;;;65.22;37.45;;;5.20;99.90;;;;;;2058186;28;20034;-69
2022/11/29 04:20:34;;;;;;;63.10;35.88;;;5.20;99.90;;;;;;2057967;28;20113;-69
2022/11/29 04:22:08;;;;;;;66.50;37.47;;;5.20;99.90;;;;;;2056845;28;20110;-68
2022/11/29 04:23:15;;;;;;;59.13;34.50;;;5.20;99.90;;;;;;2057534;28;20025;-69
2022/11/29 04:24:30;;;;;;;63.83;36.33;;;5.20;99.90;;;;;;2057422;28;20125;-69
2022/11/29 04:26:15;;;;;;;60.67;34.70;;;5.20;99.90;;;;;;2057571;28;20034;-69
2022/11/29 04:27:29;;;;;;;66.15;36.85;;;5.20;99.90;;;;;;2053364;28;20054;-69
2022/11/29 04:28:49;;;;;;;61.85;35.42;;;5.20;99.90;;;;;;2057596;28;20026;-69
2022/11/29 04:29:49;;;;;;;66.63;37.00;;;5.20;99.90;;;;;;2057552;28;20493;-69
2022/11/29 04:31:20;;;;;;;62.20;36.67;;;5.20;99.90;;;;;;2057629;28;20034;-69
2022/11/29 04:32:45;;;;;;;64.57;37.22;;;5.20;99.90;;;;;;2057634;28;20165;-68
2022/11/29 04:34:15;;;;;;;64.43;35.95;;;5.20;99.90;;;;;;2057628;28;20042;-69
2022/11/29 04:35:35;;;;;;;62.33;35.20;;;5.20;99.90;;;;;;2057704;28;20050;-69
2022/11/29 04:36:51;;;;;;;65.50;36.55;;;5.20;99.90;;;;;;2056845;28;20038;-68
2022/11/29 04:38:20;;;;;;;63.60;36.15;;;5.20;99.90;;;;;;2043567;28;20043;-69
2022/11/29 04:39:23;;;;;;;61.70;34.88;;;5.20;99.90;;;;;;2057317;28;20429;-69
2022/11/29 04:40:36;;;;;;;61.83;35.83;;;5.20;99.90;;;;;;2057632;28;20061;-69
2022/11/29 04:42:00;;;;;;;63.60;36.33;;;5.30;99.90;;;;;;2057354;28;20062;-69
2022/11/29 04:43:20;;;;;;;63.58;35.20;;;5.30;99.90;;;;;;2057521;28;20061;-69
2022/11/29 04:44:45;;;;;;;64.28;35.33;;;5.40;99.90;;;;;;2057250;28;20144;-69
2022/11/29 04:45:53;;;;;;;63.30;36.10;;;5.50;99.90;;;;;;2057632;28;20035;-69
2022/11/29 04:47:39;;;;;;;64.45;35.45;;;5.40;99.90;;;;;;2057739;28;20367;-69
2022/11/29 04:49:05;;;;;;;61.97;35.35;;;5.50;99.90;;;;;;2057633;28;20566;-69
2022/11/29 04:50:24;;;;;;;66.90;36.45;;;5.50;99.90;;;;;;2057715;28;20030;-69
2022/11/29 04:51:53;;;;;;;65.97;36.78;;;5.40;99.90;;;;;;2057887;28;20019;-69
2022/11/29 04:53:22;;;;;;;64.13;36.53;;;5.40;99.90;;;;;;2057518;28;20037;-68
2022/11/29 04:54:41;;;;;;;63.53;35.35;;;5.30;99.90;;;;;;2057476;28;20041;-69
2022/11/29 04:56:00;;;;;;;61.55;34.88;;;5.30;99.90;;;;;;2057039;28;20147;-68
2022/11/29 04:57:26;;;;;;;63.22;36.65;;;5.30;99.90;;;;;;2057593;28;20054;-68
2022/11/29 04:58:55;;;;;;;61.60;34.85;;;5.30;99.90;;;;;;2057070;28;20118;-67
2022/11/29 05:00:08;;;;;;;65.35;36.50;;;5.30;99.90;;;;;;2057474;28;20038;-68
2022/11/29 05:01:29;;;;;;;60.67;35.58;;;5.30;99.90;;;;;;2057809;28;20039;-68
2022/11/29 05:02:43;;;;;;;63.88;37.22;;;5.30;99.90;;;;;;2057592;28;20034;-68
2022/11/29 05:03:53;;;;;;;59.35;34.97;;;5.30;99.90;;;;;;2056949;28;20113;-68
2022/11/29 05:05:20;;;;;;;62.58;35.33;;;5.30;99.90;;;;;;2057594;28;20627;-68
2022/11/29 05:06:31;;;;;;;64.18;35.72;;;5.30;99.90;;;;;;2057672;28;20393;-68
2022/11/29 05:07:55;;;;;;;60.17;35.33;;;5.30;99.90;;;;;;2057465;28;20031;-68
2022/11/29 05:09:04;;;;;;;57.03;34.33;;;5.30;99.90;;;;;;2054903;28;20077;-69
2022/11/29 05:10:32;;;;;;;62.72;36.53;;;5.30;99.90;;;;;;2056760;28;20118;-68
2022/11/29 05:11:43;;;;;;;60.75;34.90;;;5.30;99.90;;;;;;2056349;28;20073;-68
2022/11/29 05:12:56;;;;;;;64.78;37.40;;;5.30;99.90;;;;;;2055765;28;20018;-68
2022/11/29 05:14:03;;;;;;;67.22;37.30;;;5.30;99.90;;;;;;2055801;28;20035;-68
2022/11/29 05:15:29;;;;;;;62.83;36.53;;;5.30;99.90;;;;;;2056401;28;20494;-68
2022/11/29 05:16:38;;;;;;;59.70;35.75;;;5.30;99.90;;;;;;2055866;28;20027;-67
2022/11/29 05:18:08;;;;;;;64.45;35.83;;;5.20;99.90;;;;;;2055552;28;20042;-68
2022/11/29 05:19:27;;;;;;;62.22;35.70;;;5.30;99.90;;;;;;2056342;28;20114;-68
2022/11/29 05:20:43;;;;;;;59.75;35.20;;;5.30;99.90;;;;;;2056314;28;20110;-68
2022/11/29 05:22:10;;;;;;;66.82;37.22;;;5.30;99.90;;;;;;2055947;28;20094;-68
2022/11/29 05:23:10;;;;;;;65.22;36.25;;;5.30;99.90;;;;;;2050934;28;20121;-68
2022/11/29 05:24:18;;;;;;;61.38;35.22;;;5.30;99.90;;;;;;2056025;28;20050;-68
2022/11/29 05:25:43;;;;;;;63.42;36.75;;;5.30;99.90;;;;;;2056295;28;20130;-68
2022/11/29 05:27:00;;;;;;;66.90;38.30;;;5.30;99.90;;;;;;2056403;28;20053;-68
2022/11/29 05:28:10;;;;;;;62.00;35.88;;;5.20;99.90;;;;;;2056285;28;20047;-67
2022/11/29 05:29:39;;;;;;;64.97;36.33;;;5.20;99.90;;;;;;2056291;28;20512;-67
2022/11/29 05:30:42;;;;;;;61.15;35.03;;;5.20;99.90;;;;;;2058310;28;20046;-68
2022/11/29 05:31:48;;;;;;;80.03;43.70;;;5.30;99.90;;;;;;2063106;28;20045;-72
2022/11/29 05:33:14;;;;;;;71.32;39.90;;;5.30;99.90;;;;;;2062583;28;20046;-67
2022/11/29 05:34:56;;;;;;;71.68;39.58;;;5.30;99.90;;;;;;2056046;28;20046;-67
2022/11/29 05:36:15;;;;;;;65.68;36.28;;;5.30;99.90;;;;;;2046519;28;20343;-67
2022/11/29 05:37:25;;;;;;;61.38;35.33;;;5.20;99.90;;;;;;2048043;28;20035;-67
2022/11/29 05:38:48;;;;;;;65.72;37.33;;;5.20;99.90;;;;;;2039396;29;20038;-67
2022/11/29 05:40:27;;;;;;;61.95;34.85;;;5.30;99.90;;;;;;2042614;29;20058;-67
2022/11/29 05:41:59;;;;;;;63.20;35.80;;;5.30;99.90;;;;;;2047778;28;20070;-67
2022/11/29 05:43:23;;;;;;;63.70;35.67;;;5.20;99.90;;;;;;2047970;28;20114;-68
2022/11/29 05:44:26;;;;;;;70.68;42.20;;;5.20;99.90;;;;;;2047194;28;20027;-68
2022/11/29 05:45:41;;;;;;;73.57;42.90;;;5.20;99.90;;;;;;2047637;29;20019;-70
2022/11/29 05:47:08;;;;;;;64.78;38.13;;;5.20;99.90;;;;;;2047770;29;20150;-68
2022/11/29 05:48:34;;;;;;;68.18;37.53;;;5.20;99.90;;;;;;2050224;28;20027;-68
2022/11/29 05:49:49;;;;;;;67.80;37.35;;;5.20;99.90;;;;;;2056057;28;20026;-69
2022/11/29 05:51:17;;;;;;;79.40;46.08;;;5.20;99.90;;;;;;2047716;28;20035;-69
2022/11/29 05:52:44;;;;;;;71.32;41.10;;;5.10;99.90;;;;;;2055503;28;20112;-70
2022/11/29 05:54:00;;;;;;;67.55;38.45;;;5.10;99.90;;;;;;2056566;28;20101;-69
2022/11/29 05:55:13;;;;;;;66.32;38.45;;;5.10;99.90;;;;;;2048136;29;20040;-69
2022/11/29 05:56:42;;;;;;;63.97;37.10;;;5.10;99.90;;;;;;2048213;29;20031;-69
2022/11/29 05:58:11;;;;;;;79.93;46.42;;;5.20;99.90;;;;;;2048101;29;20482;-69
2022/11/29 05:59:17;;;;;;;71.93;39.75;;;5.10;99.90;;;;;;2039547;29;20036;-69
2022/11/29 06:00:19;;;;;;;65.35;37.65;;;5.10;99.90;;;;;;2040391;29;20446;-68
2022/11/29 06:01:26;;;;;;;60.08;34.70;;;5.10;99.90;;;;;;2047404;28;20027;-69
2022/11/29 06:02:50;;;;;;;65.20;39.17;;;5.10;99.90;;;;;;2040355;29;20028;-68
2022/11/29 06:04:10;;;;;;;63.45;36.83;;;5.20;99.90;;;;;;2042276;29;20085;-69
2022/11/29 06:05:50;;;;;;;63.05;36.22;;;5.20;99.90;;;;;;2047635;28;20063;-69
2022/11/29 06:06:57;;;;;;;59.10;34.38;;;5.20;99.90;;;;;;2047215;29;20024;-69
2022/11/29 06:08:34;;;;;;;62.50;36.75;;;5.20;99.90;;;;;;2047930;28;20038;-68
2022/11/29 06:09:43;;;;;;;62.95;35.45;;;5.20;99.90;;;;;;2035793;28;20104;-69
2022/11/29 06:11:00;;;;;;;59.08;34.45;;;5.20;99.90;;;;;;2048343;28;20023;-69
2022/11/29 06:12:11;;;;;;;66.35;38.45;;;5.20;99.90;;;;;;2047602;28;20668;-69
2022/11/29 06:13:29;;;;;;;59.85;35.15;;;5.20;99.90;;;;;;2039468;29;20102;-69
2022/11/29 06:14:56;;;;;;;65.38;41.65;;;5.20;99.90;;;;;;2046712;28;20039;-68
2022/11/29 06:16:41;;;;;;;60.97;34.70;;;5.20;99.90;;;;;;2046052;29;20063;-68
2022/11/29 06:18:00;;;;;;;60.00;34.38;;;5.20;99.90;;;;;;2057154;28;20038;-67
2022/11/29 06:19:28;;;;;;;60.65;34.17;;;5.20;99.90;;;;;;2049407;28;20039;-69
2022/11/29 06:20:59;;;;;;;59.63;33.78;;;5.20;99.90;;;;;;2063138;28;20143;-67
2022/11/29 06:22:20;;;;;;;58.25;33.70;;;5.20;99.90;;;;;;2057155;28;20519;-67
2022/11/29 06:23:30;;;;;;;59.97;34.65;;;5.20;99.90;;;;;;2063042;28;20086;-67
2022/11/29 06:24:55;;;;;;;58.00;34.05;;;5.30;99.90;;;;;;2063938;28;20046;-68
2022/11/29 06:26:25;;;;;;;58.75;33.35;;;5.30;99.90;;;;;;2055372;28;20034;-68
2022/11/29 06:27:35;;;;;;;59.03;33.42;;;5.30;99.90;;;;;;2051052;28;20047;-68
2022/11/29 06:28:42;;;;;;;58.35;34.58;;;5.30;99.90;;;;;;2055250;28;20141;-68
2022/11/29 06:30:00;;;;;;;61.67;34.85;;;5.20;99.90;;;;;;2055578;28;20034;-68
2022/11/29 06:31:14;;;;;;;57.67;33.70;;;5.20;99.90;;;;;;2052305;28;20038;-68
2022/11/29 06:32:31;;;;;;;57.50;32.53;;;5.20;99.90;;;;;;2055403;28;20047;-68
2022/11/29 06:34:27;;;;;;;58.63;33.80;;;5.20;99.90;;;;;;2055615;28;20036;-68
2022/11/29 06:35:44;;;;;;;59.50;33.72;;;5.20;99.90;;;;;;2050566;28;20062;-69
2022/11/29 06:36:55;;;;;;;63.00;34.75;;;5.20;99.90;;;;;;2046135;28;20031;-69
2022/11/29 06:38:00;;;;;;;61.78;34.60;;;5.20;99.90;;;;;;2051758;28;20141;-68
2022/11/29 06:39:01;;;;;;;58.22;33.15;;;5.20;99.90;;;;;;2054876;28;20030;-68
2022/11/29 06:40:03;;;;;;;61.97;34.50;;;5.20;99.90;;;;;;2058451;28;20049;-68
2022/11/29 06:41:04;;;;;;;58.63;33.47;;;5.20;99.90;;;;;;2063755;28;20045;-68
2022/11/29 06:42:05;;;;;;;57.67;33.17;;;5.20;99.90;;;;;;2063461;28;20072;-68
2022/11/29 06:43:05;;;;;;;58.50;33.92;;;5.20;99.90;;;;;;2063767;28;20041;-68
2022/11/29 06:44:07;;;;;;;57.42;34.45;;;5.20;99.90;;;;;;2062373;28;20516;-68
2022/11/29 06:45:12;;;;;;;65.53;39.10;;;5.20;99.90;;;;;;2061828;28;20040;-68
2022/11/29 06:46:37;;;;;;;66.30;38.55;;;5.20;99.90;;;;;;2058068;28;20106;-68
2022/11/29 06:47:54;;;;;;;63.72;38.75;;;5.20;99.90;;;;;;2054946;28;20536;-71
2022/11/29 06:49:13;;;;;;;62.92;36.05;;;5.20;99.90;;;;;;2055433;28;20041;-67
2022/11/29 06:50:32;;;;;;;62.70;35.72;;;5.20;99.90;;;;;;2055703;28;20485;-68
2022/11/29 06:51:56;;;;;;;60.85;34.15;;;5.20;99.90;;;;;;2055557;28;20038;-69
2022/11/29 06:52:57;;;;;;;61.72;34.33;;;5.20;99.90;;;;;;2055601;28;20080;-68
2022/11/29 06:54:12;;;;;;;62.60;34.60;;;5.20;99.90;;;;;;2054842;28;20058;-68